Comox, Canada
Current Conditions -  °F | °C
As of 6:00 AM on Tuesday 21 Oct 2014 (Local Time) from CYQQ Reporting Station
Overcast Overcast  
Wind Chill: 52°   Ceiling: 15000
Heat Index: 52°   Visibility: 20mi
Dew Point: 52°   Wind: 8mph
Humidity: 100%   Direction: 160°SSE
Pressure: 29.71"   Gusts: NA
Location:  49.67°N, 124.93°W
Report Text: CYQQ 211300Z 16007KT 20SM FEW005 SCT050 OVC150 11/11 A2971 RMK SF2SC2AC4 SLP063
Loading
Personal Weather Stations






























Interactive Weather Map
Tropical Storm Tracking
New forecast layout! Learn more

10-Day Weather Forecast

Advertisements
Track Severe Weather on mobile